createdAt,value
2022-12-22T00:01:23.030Z,6.64
2022-12-22T00:04:09.009Z,6.69
2022-12-22T00:06:54.967Z,6.64
2022-12-22T00:09:40.942Z,6.60
2022-12-22T00:12:29.362Z,6.62
2022-12-22T00:15:15.587Z,6.60
2022-12-22T00:18:01.581Z,6.54
2022-12-22T00:20:47.369Z,6.60
2022-12-22T00:23:33.391Z,6.59
2022-12-22T00:26:19.352Z,6.63
2022-12-22T00:29:05.627Z,6.68
2022-12-22T00:31:51.844Z,6.64
2022-12-22T00:34:41.321Z,6.48
2022-12-22T00:37:31.139Z,6.59
2022-12-22T00:40:18.125Z,6.57
2022-12-22T00:43:04.571Z,6.55
2022-12-22T00:45:50.732Z,6.57
2022-12-22T00:48:44.996Z,6.55
2022-12-22T00:51:31.415Z,6.56
2022-12-22T00:54:17.411Z,6.34
2022-12-22T00:57:03.735Z,6.29
2022-12-22T00:59:50.101Z,6.55
2022-12-22T01:02:36.973Z,6.48
2022-12-22T01:05:23.269Z,6.54
2022-12-22T01:08:09.176Z,6.49
2022-12-22T01:10:55.221Z,6.52
2022-12-22T01:13:41.108Z,6.59
2022-12-22T01:16:30.771Z,6.69
2022-12-22T01:19:16.964Z,6.56
2022-12-22T01:22:02.981Z,6.53
2022-12-22T01:24:49.451Z,6.52
2022-12-22T01:27:38.534Z,6.50
2022-12-22T01:30:25.280Z,6.53
2022-12-22T01:33:11.224Z,6.51
2022-12-22T01:35:57.583Z,6.67
2022-12-22T01:38:43.653Z,6.51
2022-12-22T01:41:35.742Z,6.55
2022-12-22T01:44:31.888Z,6.53
2022-12-22T01:47:46.101Z,6.53
2022-12-22T01:50:41.307Z,6.53
2022-12-22T01:53:33.324Z,6.58
2022-12-22T01:56:19.703Z,6.66
2022-12-22T01:59:10.784Z,6.59
2022-12-22T02:01:57.980Z,6.65
2022-12-22T02:04:49.430Z,6.64
2022-12-22T02:08:01.717Z,6.55
2022-12-22T02:10:56.437Z,6.62
2022-12-22T02:14:09.972Z,6.59
2022-12-22T02:17:09.922Z,6.56
2022-12-22T02:20:25.137Z,6.60
2022-12-22T02:23:33.354Z,6.42
2022-12-22T02:26:52.336Z,6.41
2022-12-22T02:29:50.404Z,6.38
2022-12-22T02:32:36.376Z,6.39
2022-12-22T02:35:34.016Z,6.41
2022-12-22T02:38:44.032Z,6.39
2022-12-22T02:41:39.403Z,6.27
2022-12-22T02:44:25.483Z,6.19
2022-12-22T02:47:19.303Z,6.33
2022-12-22T02:50:16.191Z,6.48
2022-12-22T02:53:04.045Z,6.45
2022-12-22T02:55:50.050Z,6.36
2022-12-22T02:58:36.683Z,6.43
2022-12-22T03:01:23.861Z,6.48
2022-12-22T03:04:10.104Z,6.44
2022-12-22T03:06:59.253Z,6.41
2022-12-22T03:09:45.397Z,6.38
2022-12-22T03:12:31.323Z,6.33
2022-12-22T03:15:17.271Z,6.32
2022-12-22T03:18:03.303Z,6.40
2022-12-22T03:20:49.342Z,6.31
2022-12-22T03:23:35.322Z,6.36
2022-12-22T03:26:02.782Z,6.43
2022-12-22T03:28:30.312Z,6.39
2022-12-22T03:31:00.716Z,6.42
2022-12-22T03:33:29.517Z,6.44
2022-12-22T03:35:57.408Z,6.45
2022-12-22T03:38:25.275Z,6.46
2022-12-22T03:40:53.089Z,6.45
2022-12-22T03:43:39.463Z,6.36
2022-12-22T03:46:17.774Z,6.49
2022-12-22T03:49:06.095Z,6.41
2022-12-22T03:51:34.223Z,6.45
2022-12-22T03:54:02.693Z,6.42
2022-12-22T03:56:30.358Z,6.39
2022-12-22T03:58:57.848Z,6.44
2022-12-22T04:01:25.460Z,6.35
2022-12-22T04:03:53.055Z,6.27
2022-12-22T04:06:21.049Z,6.30
2022-12-22T04:08:48.709Z,6.21
2022-12-22T04:11:35.783Z,6.26
2022-12-22T04:14:04.133Z,6.36
2022-12-22T04:16:31.900Z,6.32
2022-12-22T04:18:59.399Z,6.32
2022-12-22T04:21:27.397Z,6.31
2022-12-22T04:23:54.936Z,6.35
2022-12-22T04:26:24.559Z,6.22
2022-12-22T04:28:53.134Z,6.26
2022-12-22T04:31:22.450Z,6.28
2022-12-22T04:33:50.119Z,6.34
2022-12-22T04:36:18.250Z,6.39
2022-12-22T04:38:45.917Z,6.42
2022-12-22T04:41:13.368Z,6.50
2022-12-22T04:43:40.767Z,6.45
2022-12-22T04:46:08.370Z,6.47
2022-12-22T04:48:36.251Z,6.48
2022-12-22T04:51:04.028Z,6.45
2022-12-22T04:53:32.118Z,6.47
2022-12-22T04:56:05.883Z,6.53
2022-12-22T04:58:33.534Z,6.52
2022-12-22T05:01:12.213Z,6.44
2022-12-22T05:03:39.850Z,6.48
2022-12-22T05:06:07.715Z,6.61
2022-12-22T05:08:35.237Z,6.48
2022-12-22T05:11:03.013Z,6.36
2022-12-22T05:13:31.663Z,6.30
2022-12-22T05:16:17.089Z,6.35
2022-12-22T05:18:45.758Z,6.30
2022-12-22T05:21:19.523Z,6.36
2022-12-22T05:23:47.710Z,6.38
2022-12-22T05:26:17.616Z,6.34
2022-12-22T05:28:46.690Z,6.22
2022-12-22T05:31:20.994Z,6.14
2022-12-22T05:33:48.931Z,6.23
2022-12-22T05:36:16.923Z,6.30
2022-12-22T05:38:47.219Z,6.31
2022-12-22T05:41:14.621Z,6.39
2022-12-22T05:43:42.139Z,6.32
2022-12-22T05:46:11.360Z,6.43
2022-12-22T05:48:40.139Z,6.42
2022-12-22T05:51:09.137Z,6.41
2022-12-22T05:53:37.755Z,6.43
2022-12-22T05:56:05.735Z,6.43
2022-12-22T05:58:34.044Z,6.37
2022-12-22T06:01:01.629Z,6.31
2022-12-22T06:03:30.449Z,6.14
2022-12-22T06:05:58.831Z,6.18
2022-12-22T06:08:26.263Z,6.21
2022-12-22T06:10:55.067Z,6.23
2022-12-22T06:13:23.323Z,6.26
2022-12-22T06:15:50.875Z,6.18
2022-12-22T06:18:18.398Z,6.10
2022-12-22T06:20:46.837Z,6.09
2022-12-22T06:23:14.268Z,6.24
2022-12-22T06:25:41.675Z,6.26
2022-12-22T06:28:12.324Z,6.36
2022-12-22T06:30:39.678Z,6.36
2022-12-22T06:33:07.065Z,6.36
2022-12-22T06:35:36.885Z,6.41
2022-12-22T06:38:04.223Z,6.35
2022-12-22T06:40:31.557Z,6.36
2022-12-22T06:43:17.566Z,6.37
2022-12-22T06:45:45.612Z,6.34
2022-12-22T06:48:13.620Z,6.34
2022-12-22T06:50:41.403Z,6.32
2022-12-22T06:53:09.234Z,6.28
2022-12-22T06:55:37.481Z,6.32
2022-12-22T06:58:06.036Z,6.24
2022-12-22T07:00:33.909Z,6.23
2022-12-22T07:03:01.544Z,6.21
2022-12-22T07:05:31.764Z,6.24
2022-12-22T07:08:05.943Z,6.29
2022-12-22T07:10:54.578Z,6.36
2022-12-22T07:13:24.006Z,6.38
2022-12-22T07:15:59.913Z,6.43
2022-12-22T07:18:36.582Z,6.39
2022-12-22T07:21:06.893Z,6.50
2022-12-22T07:23:34.968Z,6.51
2022-12-22T07:26:03.224Z,6.44
2022-12-22T07:28:49.349Z,6.42
2022-12-22T07:31:35.265Z,6.43
2022-12-22T07:34:21.495Z,6.34
2022-12-22T07:37:07.620Z,6.41
2022-12-22T07:39:35.144Z,6.41
2022-12-22T07:42:21.223Z,6.44
2022-12-22T07:45:07.375Z,6.46
2022-12-22T07:47:35.646Z,6.48
2022-12-22T07:50:32.513Z,6.39
2022-12-22T07:53:02.415Z,6.48
2022-12-22T07:55:35.264Z,6.44
2022-12-22T07:58:02.685Z,6.51
2022-12-22T08:00:30.057Z,6.54
2022-12-22T08:02:58.003Z,6.50
2022-12-22T08:05:45.579Z,6.63
2022-12-22T08:08:31.545Z,6.55
2022-12-22T08:11:03.146Z,6.53
2022-12-22T08:13:49.984Z,6.60
2022-12-22T08:16:18.097Z,6.68
2022-12-22T08:18:45.610Z,6.59
2022-12-22T08:21:13.111Z,6.59
2022-12-22T08:23:40.811Z,6.58
2022-12-22T08:26:16.546Z,6.70
2022-12-22T08:29:10.694Z,6.78
2022-12-22T08:31:56.925Z,6.77
2022-12-22T08:34:43.262Z,6.79
2022-12-22T08:37:32.613Z,6.79
2022-12-22T08:40:04.809Z,6.74
2022-12-22T08:42:33.857Z,6.75
2022-12-22T08:45:19.613Z,6.78
2022-12-22T08:47:46.945Z,6.91
2022-12-22T08:50:14.534Z,6.92
2022-12-22T08:52:42.165Z,6.92
2022-12-22T08:55:10.358Z,6.87
2022-12-22T08:57:37.836Z,6.92
2022-12-22T09:00:08.724Z,7.00
2022-12-22T09:02:36.763Z,6.98
2022-12-22T09:05:04.947Z,7.03
2022-12-22T09:07:32.296Z,7.16
2022-12-22T09:09:59.620Z,7.14
2022-12-22T09:12:27.111Z,7.26
2022-12-22T09:14:54.556Z,7.23
2022-12-22T09:17:22.012Z,7.18
2022-12-22T09:19:49.362Z,7.29
2022-12-22T09:22:20.364Z,7.45
2022-12-22T09:24:50.971Z,7.31
2022-12-22T09:27:18.429Z,7.30
2022-12-22T09:29:45.777Z,7.20
2022-12-22T09:32:13.264Z,7.18
2022-12-22T09:34:40.678Z,7.18
2022-12-22T09:37:08.139Z,7.34
2022-12-22T09:39:35.545Z,7.26
2022-12-22T09:42:03.229Z,7.39
2022-12-22T09:44:38.486Z,7.25
2022-12-22T09:47:40.101Z,7.30
2022-12-22T09:50:15.136Z,7.35
2022-12-22T09:52:50.955Z,7.30
2022-12-22T09:55:24.341Z,7.34
2022-12-22T09:57:54.555Z,7.31
2022-12-22T10:00:28.465Z,7.34
2022-12-22T10:03:17.918Z,7.42
2022-12-22T10:05:57.432Z,7.44
2022-12-22T10:08:36.502Z,7.45
2022-12-22T10:11:11.330Z,7.51
2022-12-22T10:13:38.786Z,7.60
2022-12-22T10:16:28.148Z,7.53
2022-12-22T10:19:11.286Z,7.58
2022-12-22T10:21:47.116Z,7.50
2022-12-22T10:24:18.359Z,7.49
2022-12-22T10:26:46.292Z,7.54
2022-12-22T10:29:15.492Z,7.64
2022-12-22T10:32:02.861Z,7.68
2022-12-22T10:34:30.706Z,7.81
2022-12-22T10:37:01.281Z,7.78
2022-12-22T10:39:34.302Z,7.73
2022-12-22T10:42:08.348Z,7.77
2022-12-22T10:44:38.500Z,7.73
2022-12-22T10:47:17.997Z,7.82
2022-12-22T10:49:49.581Z,7.80
2022-12-22T10:52:21.330Z,7.87
2022-12-22T10:54:53.072Z,7.89
2022-12-22T10:57:28.911Z,7.97
2022-12-22T11:00:02.147Z,7.96
2022-12-22T11:02:39.185Z,7.80
2022-12-22T11:05:08.246Z,7.86
2022-12-22T11:07:41.454Z,7.89
2022-12-22T11:10:31.303Z,7.90
2022-12-22T11:13:17.095Z,7.92
2022-12-22T11:16:14.035Z,7.98
2022-12-22T11:19:17.739Z,7.93
2022-12-22T11:22:14.810Z,7.96
2022-12-22T11:25:13.025Z,7.81
2022-12-22T11:28:09.119Z,7.89
2022-12-22T11:30:55.335Z,8.01
2022-12-22T11:33:50.279Z,8.03
2022-12-22T11:36:43.552Z,7.95
2022-12-22T11:39:16.480Z,8.10
2022-12-22T11:41:51.354Z,8.12
2022-12-22T11:44:54.062Z,8.08
2022-12-22T11:48:04.075Z,8.21
2022-12-22T11:51:01.472Z,8.22
2022-12-22T11:53:31.281Z,8.37
2022-12-22T11:56:16.371Z,8.41
2022-12-22T11:59:11.794Z,8.53
2022-12-22T12:02:12.860Z,8.33
2022-12-22T12:05:02.036Z,8.50
2022-12-22T12:07:43.440Z,8.58
2022-12-22T12:10:31.982Z,8.48
2022-12-22T12:13:12.559Z,8.59
2022-12-22T12:15:46.884Z,8.45
2022-12-22T12:18:39.727Z,8.48
2022-12-22T12:21:25.219Z,8.51
2022-12-22T12:24:10.502Z,8.41
2022-12-22T12:26:48.558Z,8.44
2022-12-22T12:29:18.735Z,8.43
2022-12-22T12:31:58.797Z,8.37
2022-12-22T12:34:29.831Z,8.37
2022-12-22T12:37:18.028Z,8.40
2022-12-22T12:39:55.454Z,8.53
2022-12-22T12:42:22.844Z,8.44
2022-12-22T12:44:52.432Z,8.30
2022-12-22T12:47:31.977Z,8.29
2022-12-22T12:50:02.128Z,8.29
2022-12-22T12:52:55.673Z,8.37
2022-12-22T12:55:33.309Z,8.35
2022-12-22T12:58:03.906Z,8.31
2022-12-22T13:00:34.794Z,8.31
2022-12-22T13:03:04.597Z,8.32
2022-12-22T13:05:49.856Z,8.41
2022-12-22T13:08:29.921Z,8.54
2022-12-22T13:10:57.352Z,8.56
2022-12-22T13:13:24.836Z,8.62
2022-12-22T13:16:04.517Z,8.65
2022-12-22T13:18:35.215Z,8.66
2022-12-22T13:21:50.971Z,8.59
2022-12-22T13:26:45.453Z,8.65
2022-12-22T13:29:23.766Z,8.60
2022-12-22T13:32:14.219Z,8.62
2022-12-22T13:37:53.799Z,8.68
2022-12-22T13:40:24.567Z,8.72
2022-12-22T13:43:04.945Z,8.84
2022-12-22T13:45:39.869Z,8.68
2022-12-22T13:48:26.384Z,8.69
2022-12-22T13:50:57.849Z,8.63
2022-12-22T13:56:49.717Z,8.49
2022-12-22T13:59:28.676Z,8.51
2022-12-22T14:02:13.998Z,8.46
2022-12-22T14:04:45.380Z,8.46
2022-12-22T14:07:20.417Z,8.37
2022-12-22T14:09:50.187Z,8.33
2022-12-22T14:12:19.122Z,8.31
2022-12-22T14:14:49.332Z,8.23
2022-12-22T14:17:24.238Z,8.17
2022-12-22T14:19:57.773Z,8.18
2022-12-22T14:22:27.432Z,8.16
2022-12-22T14:24:59.255Z,8.17
2022-12-22T14:27:44.156Z,8.24
2022-12-22T14:30:20.341Z,8.24
2022-12-22T14:32:54.859Z,8.13
2022-12-22T14:35:23.649Z,8.19
2022-12-22T14:37:54.059Z,8.14
2022-12-22T14:40:36.228Z,8.20
2022-12-22T14:43:19.687Z,8.13
2022-12-22T14:45:49.305Z,8.12
2022-12-22T14:48:23.590Z,8.15
2022-12-22T14:50:52.620Z,8.18
2022-12-22T14:53:27.089Z,8.19
2022-12-22T14:55:54.608Z,8.19
2022-12-22T14:58:29.035Z,8.17
2022-12-22T15:01:14.999Z,8.20
2022-12-22T15:03:43.744Z,8.21
2022-12-22T15:06:24.394Z,8.28
2022-12-22T15:08:53.793Z,8.26
2022-12-22T15:11:24.400Z,8.22
2022-12-22T15:13:52.138Z,8.27
2022-12-22T15:16:21.759Z,8.18
2022-12-22T15:18:51.033Z,8.26
2022-12-22T15:21:19.768Z,8.26
2022-12-22T15:23:47.184Z,8.34
2022-12-22T15:26:15.153Z,8.28
2022-12-22T15:28:42.542Z,8.35
2022-12-22T15:31:17.162Z,8.32
2022-12-22T15:33:45.850Z,8.31
2022-12-22T15:36:14.522Z,8.30
2022-12-22T15:38:42.429Z,8.25
2022-12-22T15:41:09.786Z,8.24
2022-12-22T15:46:24.891Z,8.19
2022-12-22T15:48:52.995Z,8.19
2022-12-22T15:51:32.104Z,8.23
2022-12-22T15:54:00.680Z,8.27
2022-12-22T15:56:32.006Z,8.24
2022-12-22T15:59:01.998Z,8.21
2022-12-22T16:01:29.496Z,8.24
2022-12-22T16:03:57.062Z,8.26
2022-12-22T16:06:25.283Z,8.21
2022-12-22T16:08:54.255Z,8.16
2022-12-22T16:11:21.849Z,8.18
2022-12-22T16:13:50.754Z,8.17
2022-12-22T16:16:18.323Z,8.17
2022-12-22T16:18:45.952Z,8.25
2022-12-22T16:21:17.572Z,8.32
2022-12-22T16:23:46.764Z,8.30
2022-12-22T16:26:18.253Z,8.30
2022-12-22T16:28:46.763Z,8.29
2022-12-22T16:31:20.802Z,8.29
2022-12-22T16:33:49.529Z,8.28
2022-12-22T16:36:16.985Z,8.30
2022-12-22T16:38:46.030Z,8.35
2022-12-22T16:41:22.009Z,8.35
2022-12-22T16:43:50.533Z,8.34
2022-12-22T16:46:20.709Z,8.28
2022-12-22T16:48:52.637Z,8.29
2022-12-22T16:51:34.268Z,8.29
2022-12-22T16:54:02.520Z,8.24
2022-12-22T16:56:32.134Z,8.21
2022-12-22T16:59:00.994Z,8.22
2022-12-22T17:01:36.795Z,8.29
2022-12-22T17:04:17.081Z,8.24
2022-12-22T17:06:47.803Z,8.31
2022-12-22T17:09:19.434Z,8.33
2022-12-22T17:11:47.194Z,8.32
2022-12-22T17:14:31.527Z,8.38
2022-12-22T17:16:59.570Z,8.50
2022-12-22T17:19:27.008Z,8.43
2022-12-22T17:21:55.936Z,8.47
2022-12-22T17:24:28.191Z,8.45
2022-12-22T17:27:04.331Z,8.48
2022-12-22T17:29:32.140Z,8.52
2022-12-22T17:31:59.609Z,8.52
2022-12-22T17:34:27.034Z,8.52
2022-12-22T17:36:56.820Z,8.50
2022-12-22T17:39:25.737Z,8.41
2022-12-22T17:41:57.023Z,8.47
2022-12-22T17:44:26.873Z,8.48
2022-12-22T17:46:54.513Z,8.36
2022-12-22T17:49:22.887Z,8.36
2022-12-22T17:51:50.694Z,8.35
2022-12-22T17:54:24.122Z,8.32
2022-12-22T17:56:52.075Z,8.48
2022-12-22T17:59:19.432Z,8.44
2022-12-22T18:01:47.205Z,8.31
2022-12-22T18:04:15.369Z,8.46
2022-12-22T18:06:42.995Z,8.44
2022-12-22T18:09:23.759Z,8.41
2022-12-22T18:11:51.704Z,8.41
2022-12-22T18:14:37.852Z,8.40
2022-12-22T18:17:05.234Z,8.24
2022-12-22T18:19:32.707Z,8.15
2022-12-22T18:22:00.102Z,8.10
2022-12-22T18:24:27.567Z,8.26
2022-12-22T18:26:54.948Z,8.26
2022-12-22T18:32:27.820Z,7.96
2022-12-22T18:34:55.528Z,7.84
2022-12-22T18:37:22.951Z,7.85
2022-12-22T18:39:50.426Z,7.68
2022-12-22T18:42:23.259Z,7.72
2022-12-22T18:44:51.381Z,7.80
2022-12-22T18:47:19.557Z,7.81
2022-12-22T18:49:47.117Z,7.86
2022-12-22T18:52:21.249Z,7.88
2022-12-22T18:54:49.891Z,7.94
2022-12-22T18:57:19.806Z,7.89
2022-12-22T18:59:48.836Z,7.95
2022-12-22T19:02:21.808Z,7.97
2022-12-22T19:04:50.479Z,8.08
2022-12-22T19:07:20.984Z,7.99
2022-12-22T19:09:49.350Z,8.00
2022-12-22T19:12:22.016Z,7.94
2022-12-22T19:14:55.058Z,7.87
2022-12-22T19:17:25.702Z,7.87
2022-12-22T19:19:53.032Z,7.86
2022-12-22T19:22:20.706Z,8.11
2022-12-22T19:24:49.062Z,8.02
2022-12-22T19:27:19.627Z,7.94
2022-12-22T19:29:48.498Z,8.00
2022-12-22T19:32:29.060Z,8.01
2022-12-22T19:34:56.796Z,8.01
2022-12-22T19:37:24.250Z,7.95
2022-12-22T19:39:51.738Z,7.81
2022-12-22T19:42:24.109Z,7.81
2022-12-22T19:44:51.610Z,7.73
2022-12-22T19:47:21.867Z,7.94
2022-12-22T19:49:49.381Z,7.92
2022-12-22T19:52:16.802Z,7.85
2022-12-22T19:54:54.457Z,7.93
2022-12-22T19:57:22.837Z,7.88
2022-12-22T19:59:54.301Z,7.83
2022-12-22T20:02:22.310Z,7.94
2022-12-22T20:04:51.201Z,7.90
2022-12-22T20:07:21.083Z,7.71
2022-12-22T20:09:49.083Z,7.66
2022-12-22T20:12:22.563Z,7.71
2022-12-22T20:14:50.122Z,7.75
2022-12-22T20:17:17.513Z,7.83
2022-12-22T20:19:45.086Z,7.75
2022-12-22T20:22:16.367Z,7.67
2022-12-22T20:24:45.149Z,7.73
2022-12-22T20:27:35.829Z,7.74
2022-12-22T20:30:06.489Z,7.83
2022-12-22T20:32:33.838Z,7.76
2022-12-22T20:35:01.271Z,7.63
2022-12-22T20:37:29.727Z,7.63
2022-12-22T20:39:57.050Z,7.58
2022-12-22T20:42:24.869Z,7.61
2022-12-22T20:45:02.642Z,7.59
2022-12-22T20:47:35.486Z,7.60
2022-12-22T20:50:03.152Z,7.61
2022-12-22T20:52:30.524Z,7.66
2022-12-22T20:54:57.841Z,7.68
2022-12-22T20:57:26.426Z,7.73
2022-12-22T20:59:56.438Z,7.92
2022-12-22T21:02:29.672Z,7.86
2022-12-22T21:04:57.249Z,7.84
2022-12-22T21:07:25.637Z,7.86
2022-12-22T21:09:52.999Z,7.88
2022-12-22T21:12:20.427Z,7.86
2022-12-22T21:14:49.436Z,7.99
2022-12-22T21:17:17.841Z,8.00
2022-12-22T21:19:45.871Z,7.98
2022-12-22T21:22:13.483Z,7.95
2022-12-22T21:24:41.845Z,8.01
2022-12-22T21:27:17.318Z,8.03
2022-12-22T21:29:48.661Z,7.97
2022-12-22T21:32:16.979Z,7.96
2022-12-22T21:34:44.383Z,7.97
2022-12-22T21:37:17.527Z,8.08
2022-12-22T21:39:45.479Z,8.19
2022-12-22T21:42:17.454Z,8.13
2022-12-22T21:44:45.245Z,8.17
2022-12-22T21:47:14.749Z,8.19
2022-12-22T21:49:42.328Z,7.98
2022-12-22T21:52:09.891Z,8.01
2022-12-22T21:54:37.360Z,7.94
2022-12-22T21:57:05.940Z,7.96
2022-12-22T21:59:33.382Z,8.00
2022-12-22T22:02:00.914Z,8.05
2022-12-22T22:04:28.513Z,7.93
2022-12-22T22:06:56.017Z,7.94
2022-12-22T22:09:23.445Z,7.97
2022-12-22T22:12:09.247Z,8.00
2022-12-22T22:14:36.933Z,8.00
2022-12-22T22:17:04.408Z,7.94
2022-12-22T22:19:31.948Z,7.80
2022-12-22T22:21:59.285Z,7.82
2022-12-22T22:24:26.773Z,7.90
2022-12-22T22:26:55.983Z,7.94
2022-12-22T22:29:23.525Z,7.96
2022-12-22T22:31:50.976Z,7.91
2022-12-22T22:34:18.513Z,7.91
2022-12-22T22:36:45.902Z,7.93
2022-12-22T22:39:13.365Z,7.91
2022-12-22T22:41:43.585Z,7.88
2022-12-22T22:44:11.654Z,7.96
2022-12-22T22:46:39.192Z,7.88
2022-12-22T22:49:07.398Z,7.80
2022-12-22T22:51:34.851Z,7.91
2022-12-22T22:54:02.234Z,7.92
2022-12-22T22:56:29.631Z,7.91
2022-12-22T22:58:59.022Z,7.89
2022-12-22T23:01:26.595Z,7.91
2022-12-22T23:03:54.206Z,7.85
2022-12-22T23:06:21.825Z,7.85
2022-12-22T23:08:49.794Z,7.74
2022-12-22T23:11:17.495Z,7.69
2022-12-22T23:13:45.619Z,7.89
2022-12-22T23:16:13.258Z,7.79
2022-12-22T23:18:41.264Z,7.88
2022-12-22T23:21:09.552Z,7.86
2022-12-22T23:23:37.147Z,7.96
2022-12-22T23:26:04.905Z,7.98
2022-12-22T23:28:34.056Z,8.02
2022-12-22T23:31:01.759Z,8.09
2022-12-22T23:33:31.746Z,8.11
2022-12-22T23:35:59.275Z,8.07
2022-12-22T23:38:26.650Z,8.13
2022-12-22T23:41:02.318Z,8.02
2022-12-22T23:43:29.890Z,8.09
2022-12-22T23:45:57.505Z,8.11
2022-12-22T23:48:25.534Z,7.98
2022-12-22T23:50:53.254Z,7.83
2022-12-22T23:53:20.663Z,7.96
2022-12-22T23:55:48.755Z,8.00
2022-12-22T23:58:17.126Z,7.87
